sensor_id;sensor_type;location;lat;lon;timestamp;temperature;humidity
21622;DHT22;10973;46.706;12.340;2022-09-27T00:01:09;7.70;99.90
21622;DHT22;10973;46.706;12.340;2022-09-27T00:03:39;7.70;99.90
21622;DHT22;10973;46.706;12.340;2022-09-27T00:06:15;7.70;99.90
21622;DHT22;10973;46.706;12.340;2022-09-27T00:08:48;7.70;99.90
21622;DHT22;10973;46.706;12.340;2022-09-27T00:11:36;7.70;99.90
21622;DHT22;10973;46.706;12.340;2022-09-27T00:14:06;7.60;99.90
21622;DHT22;10973;46.706;12.340;2022-09-27T00:16:36;7.70;99.90
21622;DHT22;10973;46.706;12.340;2022-09-27T00:19:17;7.70;99.90
21622;DHT22;10973;46.706;12.340;2022-09-27T00:21:46;7.70;99.90
21622;DHT22;10973;46.706;12.340;2022-09-27T00:24:16;7.70;99.90
21622;DHT22;10973;46.706;12.340;2022-09-27T00:26:46;7.70;99.90
21622;DHT22;10973;46.706;12.340;2022-09-27T00:29:16;7.70;99.90
21622;DHT22;10973;46.706;12.340;2022-09-27T00:31:45;7.80;99.90
21622;DHT22;10973;46.706;12.340;2022-09-27T00:34:18;7.70;99.90
21622;DHT22;10973;46.706;12.340;2022-09-27T00:36:48;7.80;99.90
21622;DHT22;10973;46.706;12.340;2022-09-27T00:39:16;7.80;99.90
21622;DHT22;10973;46.706;12.340;2022-09-27T00:41:43;7.80;99.90
21622;DHT22;10973;46.706;12.340;2022-09-27T00:55:23;7.80;99.90
21622;DHT22;10973;46.706;12.340;2022-09-27T00:57:56;7.70;99.90
21622;DHT22;10973;46.706;12.340;2022-09-27T01:00:23;7.70;99.90
21622;DHT22;10973;46.706;12.340;2022-09-27T01:02:54;7.70;99.90
21622;DHT22;10973;46.706;12.340;2022-09-27T01:05:24;7.70;99.90
21622;DHT22;10973;46.706;12.340;2022-09-27T01:07:54;7.70;99.90
21622;DHT22;10973;46.706;12.340;2022-09-27T01:10:22;7.70;99.90
21622;DHT22;10973;46.706;12.340;2022-09-27T01:16:18;7.70;99.90
21622;DHT22;10973;46.706;12.340;2022-09-27T01:19:02;7.70;99.90
21622;DHT22;10973;46.706;12.340;2022-09-27T01:39:50;7.70;99.90
21622;DHT22;10973;46.706;12.340;2022-09-27T01:45:20;7.70;99.90
21622;DHT22;10973;46.706;12.340;2022-09-27T01:47:58;7.70;99.90
21622;DHT22;10973;46.706;12.340;2022-09-27T01:50:38;7.70;99.90
21622;DHT22;10973;46.706;12.340;2022-09-27T01:53:20;7.60;99.90
21622;DHT22;10973;46.706;12.340;2022-09-27T01:55:56;7.70;99.90
21622;DHT22;10973;46.706;12.340;2022-09-27T01:58:38;7.70;99.90
21622;DHT22;10973;46.706;12.340;2022-09-27T02:01:13;7.70;99.90
21622;DHT22;10973;46.706;12.340;2022-09-27T02:03:49;7.70;99.90
21622;DHT22;10973;46.706;12.340;2022-09-27T02:06:25;7.70;99.90
21622;DHT22;10973;46.706;12.340;2022-09-27T02:09:01;7.70;99.90
21622;DHT22;10973;46.706;12.340;2022-09-27T02:11:40;7.60;99.90
21622;DHT22;10973;46.706;12.340;2022-09-27T02:14:15;7.60;99.90
21622;DHT22;10973;46.706;12.340;2022-09-27T02:16:51;7.70;99.90
21622;DHT22;10973;46.706;12.340;2022-09-27T02:25:54;7.60;99.90
21622;DHT22;10973;46.706;12.340;2022-09-27T02:28:38;7.60;99.90
21622;DHT22;10973;46.706;12.340;2022-09-27T02:31:11;7.60;99.90
21622;DHT22;10973;46.706;12.340;2022-09-27T02:33:46;7.50;99.90
21622;DHT22;10973;46.706;12.340;2022-09-27T02:36:19;7.60;99.90
21622;DHT22;10973;46.706;12.340;2022-09-27T02:38:47;7.60;99.90
21622;DHT22;10973;46.706;12.340;2022-09-27T02:41:20;7.60;99.90
21622;DHT22;10973;46.706;12.340;2022-09-27T02:43:53;7.50;99.90
21622;DHT22;10973;46.706;12.340;2022-09-27T02:49:12;7.40;99.90
21622;DHT22;10973;46.706;12.340;2022-09-27T02:55:19;7.40;99.90
21622;DHT22;10973;46.706;12.340;2022-09-27T02:58:19;7.40;99.90
21622;DHT22;10973;46.706;12.340;2022-09-27T03:01:22;7.30;99.90
21622;DHT22;10973;46.706;12.340;2022-09-27T03:06:55;7.40;99.90
21622;DHT22;10973;46.706;12.340;2022-09-27T03:09:28;7.40;99.90
21622;DHT22;10973;46.706;12.340;2022-09-27T03:12:05;7.40;99.90
21622;DHT22;10973;46.706;12.340;2022-09-27T03:14:33;7.50;99.90
21622;DHT22;10973;46.706;12.340;2022-09-27T03:17:00;7.40;99.90
21622;DHT22;10973;46.706;12.340;2022-09-27T03:19:27;7.40;99.90
21622;DHT22;10973;46.706;12.340;2022-09-27T03:21:54;7.40;99.90
21622;DHT22;10973;46.706;12.340;2022-09-27T03:24:21;7.40;99.90
21622;DHT22;10973;46.706;12.340;2022-09-27T03:26:49;7.40;99.90
21622;DHT22;10973;46.706;12.340;2022-09-27T03:29:16;7.30;99.90
21622;DHT22;10973;46.706;12.340;2022-09-27T03:31:46;7.30;99.90
21622;DHT22;10973;46.706;12.340;2022-09-27T03:34:13;7.40;99.90
21622;DHT22;10973;46.706;12.340;2022-09-27T03:36:40;7.40;99.90
21622;DHT22;10973;46.706;12.340;2022-09-27T03:39:08;7.30;99.90
21622;DHT22;10973;46.706;12.340;2022-09-27T03:41:35;7.30;99.90
21622;DHT22;10973;46.706;12.340;2022-09-27T03:44:03;7.30;99.90
21622;DHT22;10973;46.706;12.340;2022-09-27T03:46:30;7.30;99.90
21622;DHT22;10973;46.706;12.340;2022-09-27T03:48:57;7.40;99.90
21622;DHT22;10973;46.706;12.340;2022-09-27T03:51:25;7.40;99.90
21622;DHT22;10973;46.706;12.340;2022-09-27T03:53:52;7.40;99.90
21622;DHT22;10973;46.706;12.340;2022-09-27T03:56:19;7.30;99.90
21622;DHT22;10973;46.706;12.340;2022-09-27T03:58:46;7.40;99.90
21622;DHT22;10973;46.706;12.340;2022-09-27T04:01:14;7.30;99.90
21622;DHT22;10973;46.706;12.340;2022-09-27T04:03:41;7.30;99.90
21622;DHT22;10973;46.706;12.340;2022-09-27T04:06:08;7.40;99.90
21622;DHT22;10973;46.706;12.340;2022-09-27T04:08:36;7.30;99.90
21622;DHT22;10973;46.706;12.340;2022-09-27T04:11:03;7.30;99.90
21622;DHT22;10973;46.706;12.340;2022-09-27T04:13:30;7.40;99.90
21622;DHT22;10973;46.706;12.340;2022-09-27T04:15:58;7.50;99.90
21622;DHT22;10973;46.706;12.340;2022-09-27T04:18:25;7.40;99.90
21622;DHT22;10973;46.706;12.340;2022-09-27T04:20:52;7.40;99.90
21622;DHT22;10973;46.706;12.340;2022-09-27T04:23:19;7.40;99.90
21622;DHT22;10973;46.706;12.340;2022-09-27T04:25:47;7.40;99.90
21622;DHT22;10973;46.706;12.340;2022-09-27T04:28:14;7.40;99.90
21622;DHT22;10973;46.706;12.340;2022-09-27T04:30:41;7.40;99.90
21622;DHT22;10973;46.706;12.340;2022-09-27T04:33:08;7.40;99.90
21622;DHT22;10973;46.706;12.340;2022-09-27T04:35:36;7.40;99.90
21622;DHT22;10973;46.706;12.340;2022-09-27T04:38:03;7.40;99.90
21622;DHT22;10973;46.706;12.340;2022-09-27T04:40:33;7.50;99.90
21622;DHT22;10973;46.706;12.340;2022-09-27T04:43:01;7.60;99.90
21622;DHT22;10973;46.706;12.340;2022-09-27T04:45:28;7.50;99.90
21622;DHT22;10973;46.706;12.340;2022-09-27T04:47:56;7.60;99.90
21622;DHT22;10973;46.706;12.340;2022-09-27T04:50:23;7.50;99.90
21622;DHT22;10973;46.706;12.340;2022-09-27T04:52:51;7.40;99.90
21622;DHT22;10973;46.706;12.340;2022-09-27T04:55:20;7.50;99.90
21622;DHT22;10973;46.706;12.340;2022-09-27T04:57:48;7.50;99.90
21622;DHT22;10973;46.706;12.340;2022-09-27T05:00:16;7.50;99.90
21622;DHT22;10973;46.706;12.340;2022-09-27T05:02:44;7.50;99.90
21622;DHT22;10973;46.706;12.340;2022-09-27T05:05:12;7.50;99.90
21622;DHT22;10973;46.706;12.340;2022-09-27T05:07:40;7.50;99.90
21622;DHT22;10973;46.706;12.340;2022-09-27T05:10:08;7.50;99.90
21622;DHT22;10973;46.706;12.340;2022-09-27T05:12:36;7.50;99.90
21622;DHT22;10973;46.706;12.340;2022-09-27T05:15:03;7.50;99.90
21622;DHT22;10973;46.706;12.340;2022-09-27T05:17:31;7.50;99.90
21622;DHT22;10973;46.706;12.340;2022-09-27T05:19:58;7.50;99.90
21622;DHT22;10973;46.706;12.340;2022-09-27T05:22:26;7.50;99.90
21622;DHT22;10973;46.706;12.340;2022-09-27T05:24:53;7.50;99.90
21622;DHT22;10973;46.706;12.340;2022-09-27T05:27:20;7.50;99.90
21622;DHT22;10973;46.706;12.340;2022-09-27T05:29:47;7.50;99.90
21622;DHT22;10973;46.706;12.340;2022-09-27T05:32:15;7.50;99.90
21622;DHT22;10973;46.706;12.340;2022-09-27T05:34:42;7.50;99.90
21622;DHT22;10973;46.706;12.340;2022-09-27T05:37:09;7.50;99.90
21622;DHT22;10973;46.706;12.340;2022-09-27T05:39:36;7.50;99.90
21622;DHT22;10973;46.706;12.340;2022-09-27T05:42:04;7.50;99.90
21622;DHT22;10973;46.706;12.340;2022-09-27T05:44:31;7.50;99.90
21622;DHT22;10973;46.706;12.340;2022-09-27T05:47:01;7.60;99.90
21622;DHT22;10973;46.706;12.340;2022-09-27T05:49:29;7.50;99.90
21622;DHT22;10973;46.706;12.340;2022-09-27T05:51:56;7.50;99.90
21622;DHT22;10973;46.706;12.340;2022-09-27T05:54:24;7.50;99.90
21622;DHT22;10973;46.706;12.340;2022-09-27T05:56:55;7.50;99.90
21622;DHT22;10973;46.706;12.340;2022-09-27T05:59:24;7.50;99.90
21622;DHT22;10973;46.706;12.340;2022-09-27T06:01:52;7.50;99.90
21622;DHT22;10973;46.706;12.340;2022-09-27T06:04:20;7.50;99.90
21622;DHT22;10973;46.706;12.340;2022-09-27T06:06:48;7.50;99.90
21622;DHT22;10973;46.706;12.340;2022-09-27T06:09:16;7.60;99.90
21622;DHT22;10973;46.706;12.340;2022-09-27T06:11:43;7.50;99.90
21622;DHT22;10973;46.706;12.340;2022-09-27T06:14:12;7.60;99.90
21622;DHT22;10973;46.706;12.340;2022-09-27T06:16:39;7.50;99.90
21622;DHT22;10973;46.706;12.340;2022-09-27T06:19:07;7.60;99.90
21622;DHT22;10973;46.706;12.340;2022-09-27T06:21:34;7.60;99.90
21622;DHT22;10973;46.706;12.340;2022-09-27T06:24:02;7.60;99.90
21622;DHT22;10973;46.706;12.340;2022-09-27T06:26:29;7.60;99.90
21622;DHT22;10973;46.706;12.340;2022-09-27T06:28:56;7.60;99.90
21622;DHT22;10973;46.706;12.340;2022-09-27T06:31:23;7.60;99.90
21622;DHT22;10973;46.706;12.340;2022-09-27T06:33:51;7.70;99.90
21622;DHT22;10973;46.706;12.340;2022-09-27T06:36:18;7.70;99.90
21622;DHT22;10973;46.706;12.340;2022-09-27T06:38:45;7.70;99.90
21622;DHT22;10973;46.706;12.340;2022-09-27T06:41:12;7.70;99.90
21622;DHT22;10973;46.706;12.340;2022-09-27T06:43:39;7.70;99.90
21622;DHT22;10973;46.706;12.340;2022-09-27T06:46:07;7.80;99.90
21622;DHT22;10973;46.706;12.340;2022-09-27T06:48:34;7.80;99.90
21622;DHT22;10973;46.706;12.340;2022-09-27T06:51:02;7.80;99.90
21622;DHT22;10973;46.706;12.340;2022-09-27T06:53:30;7.80;99.90
21622;DHT22;10973;46.706;12.340;2022-09-27T06:56:01;7.80;99.90
21622;DHT22;10973;46.706;12.340;2022-09-27T06:58:29;7.80;99.90
21622;DHT22;10973;46.706;12.340;2022-09-27T07:00:56;7.90;99.90
21622;DHT22;10973;46.706;12.340;2022-09-27T07:03:24;7.90;99.90
21622;DHT22;10973;46.706;12.340;2022-09-27T07:06:03;8.00;99.90
21622;DHT22;10973;46.706;12.340;2022-09-27T07:08:32;8.00;99.90
21622;DHT22;10973;46.706;12.340;2022-09-27T07:11:04;8.00;99.90
21622;DHT22;10973;46.706;12.340;2022-09-27T07:13:34;8.00;99.90
21622;DHT22;10973;46.706;12.340;2022-09-27T07:16:01;8.00;99.90
21622;DHT22;10973;46.706;12.340;2022-09-27T07:18:29;8.10;99.90
21622;DHT22;10973;46.706;12.340;2022-09-27T07:20:59;8.00;99.90
21622;DHT22;10973;46.706;12.340;2022-09-27T07:23:26;8.00;99.90
21622;DHT22;10973;46.706;12.340;2022-09-27T07:25:53;8.00;99.90
21622;DHT22;10973;46.706;12.340;2022-09-27T07:28:21;7.90;99.90
21622;DHT22;10973;46.706;12.340;2022-09-27T07:30:53;8.20;99.90
21622;DHT22;10973;46.706;12.340;2022-09-27T07:33:21;8.20;99.90
21622;DHT22;10973;46.706;12.340;2022-09-27T07:35:49;8.30;99.90
21622;DHT22;10973;46.706;12.340;2022-09-27T07:38:16;8.30;99.90
21622;DHT22;10973;46.706;12.340;2022-09-27T07:40:43;8.30;99.90
21622;DHT22;10973;46.706;12.340;2022-09-27T07:43:10;8.30;99.90
21622;DHT22;10973;46.706;12.340;2022-09-27T07:45:38;8.40;99.90
21622;DHT22;10973;46.706;12.340;2022-09-27T07:48:07;8.30;99.90
21622;DHT22;10973;46.706;12.340;2022-09-27T07:50:37;8.30;99.90
21622;DHT22;10973;46.706;12.340;2022-09-27T07:53:04;8.30;99.90
21622;DHT22;10973;46.706;12.340;2022-09-27T07:55:31;8.30;99.90
21622;DHT22;10973;46.706;12.340;2022-09-27T07:58:04;8.30;99.90
21622;DHT22;10973;46.706;12.340;2022-09-27T08:00:37;8.30;99.90
21622;DHT22;10973;46.706;12.340;2022-09-27T08:03:09;8.30;99.90
21622;DHT22;10973;46.706;12.340;2022-09-27T08:05:39;8.20;99.90
21622;DHT22;10973;46.706;12.340;2022-09-27T08:08:06;8.30;99.90
21622;DHT22;10973;46.706;12.340;2022-09-27T08:10:34;8.30;99.90
21622;DHT22;10973;46.706;12.340;2022-09-27T08:13:02;8.30;99.90
21622;DHT22;10973;46.706;12.340;2022-09-27T08:15:32;8.40;99.90
21622;DHT22;10973;46.706;12.340;2022-09-27T08:18:00;8.50;99.90
21622;DHT22;10973;46.706;12.340;2022-09-27T08:20:27;8.40;99.90
21622;DHT22;10973;46.706;12.340;2022-09-27T08:22:55;8.50;99.90
21622;DHT22;10973;46.706;12.340;2022-09-27T08:25:22;8.50;99.90
21622;DHT22;10973;46.706;12.340;2022-09-27T08:27:57;8.60;99.90
21622;DHT22;10973;46.706;12.340;2022-09-27T08:30:26;8.60;99.90
21622;DHT22;10973;46.706;12.340;2022-09-27T08:32:59;8.60;99.90
21622;DHT22;10973;46.706;12.340;2022-09-27T08:35:28;8.60;99.90
21622;DHT22;10973;46.706;12.340;2022-09-27T08:37:57;8.60;99.90
21622;DHT22;10973;46.706;12.340;2022-09-27T08:40:56;8.50;99.90
21622;DHT22;10973;46.706;12.340;2022-09-27T08:43:58;8.20;99.90
21622;DHT22;10973;46.706;12.340;2022-09-27T08:50:01;7.50;99.90
21622;DHT22;10973;46.706;12.340;2022-09-27T08:52:50;7.30;99.90
21622;DHT22;10973;46.706;12.340;2022-09-27T08:55:35;7.20;99.90
21622;DHT22;10973;46.706;12.340;2022-09-27T08:58:27;7.10;99.90
21622;DHT22;10973;46.706;12.340;2022-09-27T09:01:01;7.00;99.90
21622;DHT22;10973;46.706;12.340;2022-09-27T09:03:33;6.90;99.90
21622;DHT22;10973;46.706;12.340;2022-09-27T09:06:15;6.80;99.90
21622;DHT22;10973;46.706;12.340;2022-09-27T09:17:53;6.60;99.90
21622;DHT22;10973;46.706;12.340;2022-09-27T09:32:25;6.40;99.90
21622;DHT22;10973;46.706;12.340;2022-09-27T09:35:05;6.50;99.90
21622;DHT22;10973;46.706;12.340;2022-09-27T09:37:52;6.40;99.90
21622;DHT22;10973;46.706;12.340;2022-09-27T09:40:36;6.50;99.90
21622;DHT22;10973;46.706;12.340;2022-09-27T09:43:25;6.50;99.90
21622;DHT22;10973;46.706;12.340;2022-09-27T09:46:19;6.70;99.90
21622;DHT22;10973;46.706;12.340;2022-09-27T09:48:56;6.80;99.90
21622;DHT22;10973;46.706;12.340;2022-09-27T09:51:31;6.90;99.90
21622;DHT22;10973;46.706;12.340;2022-09-27T09:54:22;6.80;99.90
21622;DHT22;10973;46.706;12.340;2022-09-27T10:00:04;6.90;99.90
21622;DHT22;10973;46.706;12.340;2022-09-27T10:02:42;7.00;99.90
21622;DHT22;10973;46.706;12.340;2022-09-27T10:05:17;7.00;99.90
21622;DHT22;10973;46.706;12.340;2022-09-27T10:07:47;6.90;99.90
21622;DHT22;10973;46.706;12.340;2022-09-27T10:10:18;7.00;99.90
21622;DHT22;10973;46.706;12.340;2022-09-27T10:12:48;7.00;99.90
21622;DHT22;10973;46.706;12.340;2022-09-27T10:15:18;7.10;99.90
21622;DHT22;10973;46.706;12.340;2022-09-27T10:17:50;7.20;99.90
21622;DHT22;10973;46.706;12.340;2022-09-27T10:23:14;7.40;99.90
21622;DHT22;10973;46.706;12.340;2022-09-27T10:25:54;7.50;99.90
21622;DHT22;10973;46.706;12.340;2022-09-27T10:28:41;7.70;99.90
21622;DHT22;10973;46.706;12.340;2022-09-27T10:31:12;7.90;99.90
21622;DHT22;10973;46.706;12.340;2022-09-27T10:33:58;8.00;99.90
21622;DHT22;10973;46.706;12.340;2022-09-27T10:36:30;8.40;99.90
21622;DHT22;10973;46.706;12.340;2022-09-27T10:39:02;8.70;99.90
21622;DHT22;10973;46.706;12.340;2022-09-27T10:41:34;8.80;99.90
21622;DHT22;10973;46.706;12.340;2022-09-27T10:44:26;9.20;99.90
21622;DHT22;10973;46.706;12.340;2022-09-27T10:47:06;9.40;99.90
21622;DHT22;10973;46.706;12.340;2022-09-27T10:49:38;9.20;99.90
21622;DHT22;10973;46.706;12.340;2022-09-27T10:52:14;9.40;99.90
21622;DHT22;10973;46.706;12.340;2022-09-27T10:54:54;9.30;99.90
21622;DHT22;10973;46.706;12.340;2022-09-27T10:57:25;9.20;99.90
21622;DHT22;10973;46.706;12.340;2022-09-27T11:00:04;9.20;99.90
21622;DHT22;10973;46.706;12.340;2022-09-27T11:02:35;9.60;99.90
21622;DHT22;10973;46.706;12.340;2022-09-27T11:05:32;10.30;99.90
21622;DHT22;10973;46.706;12.340;2022-09-27T11:13:40;11.00;99.90
21622;DHT22;10973;46.706;12.340;2022-09-27T11:30:52;11.50;99.90
21622;DHT22;10973;46.706;12.340;2022-09-27T11:40:12;14.50;99.90
21622;DHT22;10973;46.706;12.340;2022-09-27T11:51:27;15.40;99.90
21622;DHT22;10973;46.706;12.340;2022-09-27T11:57:03;15.70;99.90
21622;DHT22;10973;46.706;12.340;2022-09-27T12:02:50;15.90;99.90
21622;DHT22;10973;46.706;12.340;2022-09-27T12:17:10;15.00;99.90
21622;DHT22;10973;46.706;12.340;2022-09-27T12:19:45;15.00;99.90
21622;DHT22;10973;46.706;12.340;2022-09-27T12:22:31;15.20;99.90
21622;DHT22;10973;46.706;12.340;2022-09-27T12:25:28;14.90;99.90
21622;DHT22;10973;46.706;12.340;2022-09-27T12:28:08;14.50;99.90
21622;DHT22;10973;46.706;12.340;2022-09-27T12:30:49;14.30;99.90
21622;DHT22;10973;46.706;12.340;2022-09-27T12:37:17;14.70;99.90
21622;DHT22;10973;46.706;12.340;2022-09-27T12:52:02;13.10;99.90
21622;DHT22;10973;46.706;12.340;2022-09-27T13:00:58;12.50;99.90
21622;DHT22;10973;46.706;12.340;2022-09-27T13:07:18;12.30;99.90
21622;DHT22;10973;46.706;12.340;2022-09-27T13:12:57;11.40;99.90
21622;DHT22;10973;46.706;12.340;2022-09-27T13:15:31;11.20;99.90
21622;DHT22;10973;46.706;12.340;2022-09-27T13:18:03;10.90;99.90
21622;DHT22;10973;46.706;12.340;2022-09-27T13:31:02;10.90;99.90
21622;DHT22;10973;46.706;12.340;2022-09-27T13:33:49;11.00;99.90
21622;DHT22;10973;46.706;12.340;2022-09-27T13:47:27;11.70;99.90
21622;DHT22;10973;46.706;12.340;2022-09-27T13:50:27;11.90;99.90
21622;DHT22;10973;46.706;12.340;2022-09-27T13:53:37;12.00;99.90
21622;DHT22;10973;46.706;12.340;2022-09-27T13:56:47;12.10;99.90
21622;DHT22;10973;46.706;12.340;2022-09-27T13:59:24;11.90;99.90
21622;DHT22;10973;46.706;12.340;2022-09-27T14:02:19;11.80;99.90
21622;DHT22;10973;46.706;12.340;2022-09-27T14:04:53;11.70;99.90
21622;DHT22;10973;46.706;12.340;2022-09-27T14:07:28;11.90;99.90
21622;DHT22;10973;46.706;12.340;2022-09-27T14:10:03;11.90;99.90
21622;DHT22;10973;46.706;12.340;2022-09-27T14:12:34;11.90;99.90
21622;DHT22;10973;46.706;12.340;2022-09-27T14:15:07;11.90;99.90
21622;DHT22;10973;46.706;12.340;2022-09-27T14:17:41;11.70;99.90
21622;DHT22;10973;46.706;12.340;2022-09-27T14:20:29;11.60;99.90
21622;DHT22;10973;46.706;12.340;2022-09-27T14:23:22;11.70;99.90
21622;DHT22;10973;46.706;12.340;2022-09-27T14:25:53;11.70;99.90
21622;DHT22;10973;46.706;12.340;2022-09-27T14:28:22;11.70;99.90
21622;DHT22;10973;46.706;12.340;2022-09-27T14:31:14;11.40;99.90
21622;DHT22;10973;46.706;12.340;2022-09-27T14:33:50;11.50;99.90
21622;DHT22;10973;46.706;12.340;2022-09-27T14:36:32;11.30;99.90
21622;DHT22;10973;46.706;12.340;2022-09-27T14:39:11;11.00;99.90
21622;DHT22;10973;46.706;12.340;2022-09-27T14:41:47;11.60;99.90
21622;DHT22;10973;46.706;12.340;2022-09-27T14:44:18;11.50;99.90
21622;DHT22;10973;46.706;12.340;2022-09-27T14:47:17;11.50;99.90
21622;DHT22;10973;46.706;12.340;2022-09-27T14:49:55;12.20;99.90
21622;DHT22;10973;46.706;12.340;2022-09-27T14:52:42;12.10;99.90
21622;DHT22;10973;46.706;12.340;2022-09-27T14:55:16;11.90;99.90
21622;DHT22;10973;46.706;12.340;2022-09-27T14:57:55;11.70;99.90
21622;DHT22;10973;46.706;12.340;2022-09-27T15:00:27;11.50;99.90
21622;DHT22;10973;46.706;12.340;2022-09-27T15:03:01;11.10;99.90
21622;DHT22;10973;46.706;12.340;2022-09-27T15:05:32;11.00;99.90
21622;DHT22;10973;46.706;12.340;2022-09-27T15:08:04;10.90;99.90
21622;DHT22;10973;46.706;12.340;2022-09-27T15:10:34;10.70;99.90
21622;DHT22;10973;46.706;12.340;2022-09-27T15:13:03;10.60;99.90
21622;DHT22;10973;46.706;12.340;2022-09-27T15:15:36;10.50;99.90
21622;DHT22;10973;46.706;12.340;2022-09-27T15:18:30;10.40;99.90
21622;DHT22;10973;46.706;12.340;2022-09-27T15:21:00;10.20;99.90
21622;DHT22;10973;46.706;12.340;2022-09-27T15:23:33;10.00;99.90
21622;DHT22;10973;46.706;12.340;2022-09-27T15:26:13;9.90;99.90
21622;DHT22;10973;46.706;12.340;2022-09-27T15:28:53;9.80;99.90
21622;DHT22;10973;46.706;12.340;2022-09-27T15:31:31;9.80;99.90
21622;DHT22;10973;46.706;12.340;2022-09-27T15:34:01;9.70;99.90
21622;DHT22;10973;46.706;12.340;2022-09-27T15:36:54;9.60;99.90
21622;DHT22;10973;46.706;12.340;2022-09-27T15:39:32;9.70;99.90
21622;DHT22;10973;46.706;12.340;2022-09-27T15:42:11;9.60;99.90
21622;DHT22;10973;46.706;12.340;2022-09-27T15:44:45;9.60;99.90
21622;DHT22;10973;46.706;12.340;2022-09-27T15:52:42;9.20;99.90
21622;DHT22;10973;46.706;12.340;2022-09-27T15:55:15;9.20;99.90
21622;DHT22;10973;46.706;12.340;2022-09-27T15:57:49;9.10;99.90
21622;DHT22;10973;46.706;12.340;2022-09-27T16:00:20;9.00;99.90
21622;DHT22;10973;46.706;12.340;2022-09-27T16:02:48;8.90;99.90
21622;DHT22;10973;46.706;12.340;2022-09-27T16:05:15;8.80;99.90
21622;DHT22;10973;46.706;12.340;2022-09-27T16:07:42;8.80;99.90
21622;DHT22;10973;46.706;12.340;2022-09-27T16:10:14;8.70;99.90
21622;DHT22;10973;46.706;12.340;2022-09-27T16:12:47;8.70;99.90
21622;DHT22;10973;46.706;12.340;2022-09-27T16:15:15;8.60;99.90
21622;DHT22;10973;46.706;12.340;2022-09-27T16:17:45;8.60;99.90
21622;DHT22;10973;46.706;12.340;2022-09-27T16:20:22;8.60;99.90
21622;DHT22;10973;46.706;12.340;2022-09-27T16:22:54;8.40;99.90
21622;DHT22;10973;46.706;12.340;2022-09-27T16:25:24;8.40;99.90
21622;DHT22;10973;46.706;12.340;2022-09-27T16:27:59;8.40;99.90
21622;DHT22;10973;46.706;12.340;2022-09-27T16:30:28;8.30;99.90
21622;DHT22;10973;46.706;12.340;2022-09-27T16:32:56;8.20;99.90
21622;DHT22;10973;46.706;12.340;2022-09-27T16:35:24;8.10;99.90
21622;DHT22;10973;46.706;12.340;2022-09-27T16:37:52;8.00;99.90
21622;DHT22;10973;46.706;12.340;2022-09-27T16:40:20;8.00;99.90
21622;DHT22;10973;46.706;12.340;2022-09-27T16:42:48;7.90;99.90
21622;DHT22;10973;46.706;12.340;2022-09-27T16:45:15;7.90;99.90
21622;DHT22;10973;46.706;12.340;2022-09-27T16:47:45;7.70;99.90
21622;DHT22;10973;46.706;12.340;2022-09-27T16:50:13;7.70;99.90
21622;DHT22;10973;46.706;12.340;2022-09-27T16:52:41;7.60;99.90
21622;DHT22;10973;46.706;12.340;2022-09-27T16:55:09;7.60;99.90
21622;DHT22;10973;46.706;12.340;2022-09-27T16:57:36;7.50;99.90
21622;DHT22;10973;46.706;12.340;2022-09-27T17:00:04;7.50;99.90
21622;DHT22;10973;46.706;12.340;2022-09-27T17:02:32;7.50;99.90
21622;DHT22;10973;46.706;12.340;2022-09-27T17:04:59;7.30;99.90
21622;DHT22;10973;46.706;12.340;2022-09-27T17:07:27;7.30;99.90
21622;DHT22;10973;46.706;12.340;2022-09-27T17:09:54;7.30;99.90
21622;DHT22;10973;46.706;12.340;2022-09-27T17:12:21;7.40;99.90
21622;DHT22;10973;46.706;12.340;2022-09-27T17:14:49;7.30;99.90
21622;DHT22;10973;46.706;12.340;2022-09-27T17:17:17;7.20;99.90
21622;DHT22;10973;46.706;12.340;2022-09-27T17:19:44;7.20;99.90
21622;DHT22;10973;46.706;12.340;2022-09-27T17:22:11;7.10;99.90
21622;DHT22;10973;46.706;12.340;2022-09-27T17:24:38;7.00;99.90
21622;DHT22;10973;46.706;12.340;2022-09-27T17:27:06;6.90;99.90
21622;DHT22;10973;46.706;12.340;2022-09-27T17:29:33;6.90;99.90
21622;DHT22;10973;46.706;12.340;2022-09-27T17:32:00;6.90;99.90
21622;DHT22;10973;46.706;12.340;2022-09-27T17:34:27;6.80;99.90
21622;DHT22;10973;46.706;12.340;2022-09-27T17:36:55;6.70;99.90
21622;DHT22;10973;46.706;12.340;2022-09-27T17:39:22;6.90;99.90
21622;DHT22;10973;46.706;12.340;2022-09-27T17:41:49;6.90;99.90
21622;DHT22;10973;46.706;12.340;2022-09-27T17:44:17;6.90;99.90
21622;DHT22;10973;46.706;12.340;2022-09-27T17:46:46;6.80;99.90
21622;DHT22;10973;46.706;12.340;2022-09-27T17:49:13;6.90;99.90
21622;DHT22;10973;46.706;12.340;2022-09-27T17:51:41;6.80;99.90
21622;DHT22;10973;46.706;12.340;2022-09-27T17:54:12;6.70;99.90
21622;DHT22;10973;46.706;12.340;2022-09-27T17:56:41;6.60;99.90
21622;DHT22;10973;46.706;12.340;2022-09-27T17:59:11;6.50;99.90
21622;DHT22;10973;46.706;12.340;2022-09-27T18:01:40;6.60;99.90
21622;DHT22;10973;46.706;12.340;2022-09-27T18:04:11;6.60;99.90
21622;DHT22;10973;46.706;12.340;2022-09-27T18:06:42;6.50;99.90
21622;DHT22;10973;46.706;12.340;2022-09-27T18:09:13;6.50;99.90
21622;DHT22;10973;46.706;12.340;2022-09-27T18:11:44;6.50;99.90
21622;DHT22;10973;46.706;12.340;2022-09-27T18:14:12;6.50;99.90
21622;DHT22;10973;46.706;12.340;2022-09-27T18:16:41;6.50;99.90
21622;DHT22;10973;46.706;12.340;2022-09-27T18:19:13;6.50;99.90
21622;DHT22;10973;46.706;12.340;2022-09-27T18:21:44;6.50;99.90
21622;DHT22;10973;46.706;12.340;2022-09-27T18:24:12;6.50;99.90
21622;DHT22;10973;46.706;12.340;2022-09-27T18:26:40;6.60;99.90
21622;DHT22;10973;46.706;12.340;2022-09-27T18:29:12;6.60;99.90
21622;DHT22;10973;46.706;12.340;2022-09-27T18:31:42;6.60;99.90
21622;DHT22;10973;46.706;12.340;2022-09-27T18:34:15;6.60;99.90
21622;DHT22;10973;46.706;12.340;2022-09-27T18:36:46;6.70;99.90
21622;DHT22;10973;46.706;12.340;2022-09-27T18:39:16;6.60;99.90
21622;DHT22;10973;46.706;12.340;2022-09-27T18:41:47;6.60;99.90
21622;DHT22;10973;46.706;12.340;2022-09-27T18:44:16;6.60;99.90
21622;DHT22;10973;46.706;12.340;2022-09-27T18:46:47;6.70;99.90
21622;DHT22;10973;46.706;12.340;2022-09-27T18:49:17;6.60;99.90
21622;DHT22;10973;46.706;12.340;2022-09-27T18:51:52;6.60;99.90
21622;DHT22;10973;46.706;12.340;2022-09-27T18:54:21;6.70;99.90
21622;DHT22;10973;46.706;12.340;2022-09-27T18:56:50;6.70;99.90
21622;DHT22;10973;46.706;12.340;2022-09-27T18:59:19;6.70;99.90
21622;DHT22;10973;46.706;12.340;2022-09-27T19:01:50;6.70;99.90
21622;DHT22;10973;46.706;12.340;2022-09-27T19:04:20;6.70;99.90
21622;DHT22;10973;46.706;12.340;2022-09-27T19:06:50;6.70;99.90
21622;DHT22;10973;46.706;12.340;2022-09-27T19:09:22;6.70;99.90
21622;DHT22;10973;46.706;12.340;2022-09-27T19:11:50;6.80;99.90